createdAt,value
2022-08-11T00:00:59.903Z,53.50
2022-08-11T00:01:59.909Z,53.59
2022-08-11T00:02:59.944Z,53.59
2022-08-11T00:03:59.857Z,53.82
2022-08-11T00:05:00.757Z,52.62
2022-08-11T00:05:59.881Z,53.69
2022-08-11T00:06:59.887Z,53.92
2022-08-11T00:07:59.879Z,53.95
2022-08-11T00:08:59.946Z,54.95
2022-08-11T00:09:59.808Z,54.27
2022-08-11T00:10:59.751Z,54.77
2022-08-11T00:12:00.618Z,54.25
2022-08-11T00:12:59.770Z,54.17
2022-08-11T00:13:59.696Z,55.28
2022-08-11T00:14:59.771Z,55.51
2022-08-11T00:15:59.691Z,55.71
2022-08-11T00:16:59.757Z,55.51
2022-08-11T00:17:59.692Z,56.01
2022-08-11T00:18:59.971Z,56.03
2022-08-11T00:20:12.051Z,56.36
2022-08-11T00:21:00.655Z,56.46
2022-08-11T00:22:05.379Z,57.06
2022-08-11T00:23:00.694Z,57.44
2022-08-11T00:23:59.615Z,56.46
2022-08-11T00:25:02.381Z,57.17
2022-08-11T00:26:00.608Z,57.57
2022-08-11T00:26:59.556Z,56.63
2022-08-11T00:27:59.560Z,56.63
2022-08-11T00:28:59.658Z,57.04
2022-08-11T00:29:59.563Z,55.93
2022-08-11T00:30:59.518Z,56.03
2022-08-11T00:31:59.519Z,56.30
2022-08-11T00:32:59.497Z,56.01
2022-08-11T00:33:59.500Z,56.21
2022-08-11T00:35:51.906Z,55.80
2022-08-11T00:36:00.543Z,56.10
2022-08-11T00:36:59.496Z,56.18
2022-08-11T00:37:59.496Z,55.80
2022-08-11T00:38:59.495Z,56.08
2022-08-11T00:39:59.460Z,55.91
2022-08-11T00:40:59.416Z,55.80
2022-08-11T00:41:59.375Z,56.01
2022-08-11T00:42:59.408Z,56.41
2022-08-11T00:43:59.388Z,56.23
2022-08-11T00:44:59.355Z,56.34
2022-08-11T00:45:59.444Z,56.13
2022-08-11T00:46:59.346Z,56.34
2022-08-11T00:48:00.362Z,55.93
2022-08-11T00:48:59.355Z,56.51
2022-08-11T00:49:59.324Z,55.80
2022-08-11T00:50:59.268Z,55.91
2022-08-11T00:52:04.286Z,56.01
2022-08-11T00:53:00.349Z,55.60
2022-08-11T00:53:59.261Z,55.10
2022-08-11T00:55:00.240Z,54.90
2022-08-11T00:55:59.220Z,54.93
2022-08-11T00:56:59.232Z,54.40
2022-08-11T00:57:59.221Z,55.53
2022-08-11T00:58:59.245Z,56.13
2022-08-11T00:59:59.232Z,56.03
2022-08-11T01:00:59.262Z,56.34
2022-08-11T01:01:59.160Z,55.91
2022-08-11T01:02:59.200Z,56.54
2022-08-11T01:03:59.148Z,56.63
2022-08-11T01:04:59.152Z,56.34
2022-08-11T01:06:00.177Z,56.63
2022-08-11T01:06:59.117Z,57.54
2022-08-11T01:08:03.309Z,57.34
2022-08-11T01:08:59.252Z,57.54
2022-08-11T01:10:02.568Z,56.63
2022-08-11T01:11:00.084Z,57.34
2022-08-11T01:11:59.060Z,56.63
2022-08-11T01:12:59.073Z,56.63
2022-08-11T01:13:59.076Z,56.96
2022-08-11T01:14:59.054Z,56.63
2022-08-11T01:15:59.000Z,57.34
2022-08-11T01:16:59.013Z,57.87
2022-08-11T01:17:58.978Z,56.46
2022-08-11T01:18:59.140Z,57.64
2022-08-11T01:20:38.451Z,56.74
2022-08-11T01:20:59.954Z,57.57
2022-08-11T01:21:58.978Z,56.66
2022-08-11T01:22:58.944Z,57.37
2022-08-11T01:23:58.956Z,57.17
2022-08-11T01:24:58.970Z,57.67
2022-08-11T01:25:58.937Z,57.06
2022-08-11T01:26:58.921Z,57.97
2022-08-11T01:27:58.898Z,57.09
2022-08-11T01:28:58.878Z,58.00
2022-08-11T01:29:59.279Z,58.60
2022-08-11T01:30:58.890Z,58.29
2022-08-11T01:31:58.913Z,58.70
2022-08-11T01:32:59.755Z,58.60
2022-08-11T01:33:58.819Z,58.80
2022-08-11T01:34:58.900Z,58.90
2022-08-11T01:35:58.802Z,58.60
2022-08-11T01:36:58.803Z,59.00
2022-08-11T01:37:58.767Z,58.40
2022-08-11T01:38:58.789Z,58.90
2022-08-11T01:39:58.823Z,59.00
2022-08-11T01:40:58.757Z,58.80
2022-08-11T01:41:58.770Z,59.23
2022-08-11T01:42:58.701Z,59.23
2022-08-11T01:43:59.251Z,59.43
2022-08-11T01:44:58.795Z,58.93
2022-08-11T01:45:58.692Z,58.22
2022-08-11T01:46:58.674Z,59.33
2022-08-11T01:47:58.634Z,59.13
2022-08-11T01:48:58.667Z,59.23
2022-08-11T01:49:58.722Z,58.95
2022-08-11T01:50:59.715Z,58.93
2022-08-11T01:51:58.643Z,59.36
2022-08-11T01:52:58.618Z,58.75
2022-08-11T01:53:58.623Z,59.26
2022-08-11T01:54:58.591Z,59.56
2022-08-11T01:55:58.622Z,58.45
2022-08-11T01:56:58.558Z,58.25
2022-08-11T01:57:58.575Z,58.65
2022-08-11T01:58:58.565Z,58.75
2022-08-11T01:59:58.555Z,58.68
2022-08-11T02:00:58.629Z,60.22
2022-08-11T02:01:58.555Z,59.52
2022-08-11T02:02:58.523Z,59.31
2022-08-11T02:03:58.515Z,58.51
2022-08-11T02:04:58.479Z,58.51
2022-08-11T02:05:58.507Z,58.71
2022-08-11T02:06:58.530Z,58.48
2022-08-11T02:07:59.231Z,59.59
2022-08-11T02:08:58.427Z,60.12
2022-08-11T02:09:58.420Z,60.22
2022-08-11T02:10:58.460Z,60.22
2022-08-11T02:11:58.479Z,60.02
2022-08-11T02:12:58.423Z,60.65
2022-08-11T02:13:58.472Z,61.16
2022-08-11T02:15:05.568Z,60.88
2022-08-11T02:15:59.380Z,61.39
2022-08-11T02:16:58.420Z,61.69
2022-08-11T02:17:58.328Z,61.99
2022-08-11T02:18:58.312Z,62.80
2022-08-11T02:19:58.311Z,62.70
2022-08-11T02:20:58.340Z,62.19
2022-08-11T02:21:58.293Z,63.10
2022-08-11T02:22:58.306Z,62.60
2022-08-11T02:24:06.831Z,62.70
2022-08-11T02:24:58.318Z,62.70
2022-08-11T02:25:58.288Z,61.99
2022-08-11T02:26:58.309Z,62.90
2022-08-11T02:27:58.242Z,62.19
2022-08-11T02:28:58.243Z,62.09
2022-08-11T02:29:58.245Z,62.12
2022-08-11T02:30:58.253Z,60.81
2022-08-11T02:32:15.890Z,60.61
2022-08-11T02:32:59.265Z,60.78
2022-08-11T02:33:58.189Z,60.88
2022-08-11T02:34:59.984Z,60.78
2022-08-11T02:35:58.132Z,60.88
2022-08-11T02:36:58.117Z,60.68
2022-08-11T02:37:58.194Z,61.61
2022-08-11T02:38:58.110Z,61.92
2022-08-11T02:39:58.112Z,61.72
2022-08-11T02:40:58.085Z,62.02
2022-08-11T02:41:58.081Z,61.61
2022-08-11T02:42:58.092Z,63.39
2022-08-11T02:43:58.056Z,63.59
2022-08-11T02:44:58.014Z,63.29
2022-08-11T02:45:58.049Z,64.10
2022-08-11T02:46:58.078Z,64.17
2022-08-11T02:47:58.133Z,63.56
2022-08-11T02:48:57.988Z,63.76
2022-08-11T02:49:59.992Z,63.67
2022-08-11T02:50:58.974Z,63.67
2022-08-11T02:51:57.978Z,63.43
2022-08-11T02:52:58.013Z,63.53
2022-08-11T02:53:58.254Z,63.46
2022-08-11T02:54:58.694Z,64.07
2022-08-11T02:55:58.419Z,63.76
2022-08-11T02:56:59.557Z,64.17
2022-08-11T02:57:57.967Z,63.26
2022-08-11T02:58:57.904Z,63.96
2022-08-11T02:59:57.913Z,64.17
2022-08-11T03:00:57.874Z,63.96
2022-08-11T03:02:04.568Z,63.76
2022-08-11T03:02:58.841Z,63.23
2022-08-11T03:03:57.845Z,63.23
2022-08-11T03:04:58.665Z,62.32
2022-08-11T03:05:57.833Z,62.02
2022-08-11T03:06:57.794Z,61.82
2022-08-11T03:07:57.804Z,61.52
2022-08-11T03:08:57.813Z,62.43
2022-08-11T03:09:57.771Z,62.12
2022-08-11T03:10:57.729Z,62.32
2022-08-11T03:11:57.770Z,61.92
2022-08-11T03:12:57.735Z,62.65
2022-08-11T03:13:57.747Z,63.46
2022-08-11T03:14:58.569Z,64.00
2022-08-11T03:15:57.686Z,63.49
2022-08-11T03:16:57.731Z,64.07
2022-08-11T03:17:57.714Z,63.79
2022-08-11T03:18:57.655Z,63.56
2022-08-11T03:19:57.664Z,63.67
2022-08-11T03:20:57.676Z,63.56
2022-08-11T03:22:02.796Z,63.56
2022-08-11T03:22:58.639Z,63.46
2022-08-11T03:23:59.066Z,63.76
2022-08-11T03:24:57.602Z,63.46
2022-08-11T03:25:57.582Z,63.56
2022-08-11T03:26:57.537Z,63.73
2022-08-11T03:27:57.672Z,63.76
2022-08-11T03:28:57.567Z,64.10
2022-08-11T03:29:57.533Z,65.11
2022-08-11T03:30:57.531Z,64.50
2022-08-11T03:31:57.510Z,64.13
2022-08-11T03:32:57.506Z,65.67
2022-08-11T03:33:59.526Z,65.84
2022-08-11T03:34:58.460Z,65.24
2022-08-11T03:35:57.447Z,65.34
2022-08-11T03:37:17.058Z,65.04
2022-08-11T03:37:58.471Z,65.11
2022-08-11T03:38:57.456Z,65.01
2022-08-11T03:39:57.493Z,63.79
2022-08-11T03:40:57.424Z,63.09
2022-08-11T03:42:03.753Z,63.56
2022-08-11T03:42:58.405Z,63.46
2022-08-11T03:43:58.284Z,63.67
2022-08-11T03:44:57.364Z,63.56
2022-08-11T03:45:58.260Z,63.96
2022-08-11T03:46:57.352Z,64.10
2022-08-11T03:47:58.348Z,63.76
2022-08-11T03:48:57.328Z,63.87
2022-08-11T03:49:57.317Z,64.30
2022-08-11T03:50:57.333Z,65.47
2022-08-11T03:51:57.296Z,65.98
2022-08-11T03:52:57.276Z,66.58
2022-08-11T03:53:57.314Z,66.69
2022-08-11T03:54:57.259Z,65.84
2022-08-11T03:55:57.256Z,65.64
2022-08-11T03:56:57.229Z,65.98
2022-08-11T03:57:57.260Z,65.75
2022-08-11T03:58:57.244Z,65.84
2022-08-11T03:59:57.284Z,65.92
2022-08-11T04:00:57.208Z,65.41
2022-08-11T04:01:57.216Z,64.90
2022-08-11T04:02:57.169Z,64.81
2022-08-11T04:03:57.178Z,65.41
2022-08-11T04:04:57.170Z,66.05
2022-08-11T04:05:57.130Z,65.34
2022-08-11T04:06:57.189Z,65.84
2022-08-11T04:07:57.129Z,66.55
2022-08-11T04:08:57.112Z,66.35
2022-08-11T04:09:58.056Z,66.25
2022-08-11T04:10:59.700Z,66.45
2022-08-11T04:11:57.083Z,66.45
2022-08-11T04:12:57.074Z,67.29
2022-08-11T04:13:57.023Z,66.35
2022-08-11T04:14:57.035Z,66.75
2022-08-11T04:15:57.170Z,66.55
2022-08-11T04:16:57.021Z,65.95
2022-08-11T04:17:57.030Z,65.71
2022-08-11T04:18:57.004Z,65.92
2022-08-11T04:19:56.958Z,65.81
2022-08-11T04:20:56.970Z,66.02
2022-08-11T04:21:56.932Z,65.81
2022-08-11T04:22:56.925Z,65.51
2022-08-11T04:24:37.119Z,65.68
2022-08-11T04:24:57.906Z,65.68
2022-08-11T04:25:58.665Z,64.87
2022-08-11T04:26:56.876Z,65.28
2022-08-11T04:27:56.854Z,64.17
2022-08-11T04:28:56.893Z,65.41
2022-08-11T04:30:03.094Z,65.31
2022-08-11T04:30:57.858Z,65.31
2022-08-11T04:31:56.812Z,65.41
2022-08-11T04:32:56.914Z,65.11
2022-08-11T04:33:57.152Z,65.51
2022-08-11T04:34:56.835Z,64.81
2022-08-11T04:35:56.774Z,64.61
2022-08-11T04:36:56.770Z,64.90
2022-08-11T04:37:56.818Z,64.27
2022-08-11T04:38:56.761Z,64.78
2022-08-11T04:39:56.797Z,64.37
2022-08-11T04:40:56.722Z,64.78
2022-08-11T04:41:56.723Z,65.64
2022-08-11T04:42:56.747Z,68.13
2022-08-11T04:44:02.151Z,68.80
2022-08-11T04:44:57.709Z,68.40
2022-08-11T04:45:56.674Z,68.00
2022-08-11T04:46:56.664Z,67.46
2022-08-11T04:48:01.916Z,66.86
2022-08-11T04:48:57.659Z,66.25
2022-08-11T04:49:56.610Z,66.62
2022-08-11T04:51:04.005Z,66.32
2022-08-11T04:51:57.608Z,65.81
2022-08-11T04:52:56.566Z,66.29
2022-08-11T04:53:56.591Z,66.29
2022-08-11T04:54:56.576Z,65.78
2022-08-11T04:55:56.543Z,65.68
2022-08-11T04:56:56.588Z,66.16
2022-08-11T04:57:56.575Z,66.08
2022-08-11T04:58:56.667Z,65.68
2022-08-11T04:59:56.528Z,65.95
2022-08-11T05:00:56.607Z,65.25
2022-08-11T05:01:56.517Z,65.38
2022-08-11T05:02:56.524Z,65.48
2022-08-11T05:03:56.479Z,65.55
2022-08-11T05:04:56.692Z,65.55
2022-08-11T05:05:57.154Z,65.45
2022-08-11T05:06:56.427Z,65.75
2022-08-11T05:07:56.427Z,65.35
2022-08-11T05:08:56.429Z,65.25
2022-08-11T05:09:56.425Z,64.14
2022-08-11T05:10:56.444Z,65.32
2022-08-11T05:11:57.851Z,64.31
2022-08-11T05:12:57.351Z,65.25
2022-08-11T05:13:56.365Z,65.75
2022-08-11T05:14:56.331Z,66.36
2022-08-11T05:15:56.313Z,66.25
2022-08-11T05:16:56.321Z,66.36
2022-08-11T05:17:56.280Z,65.85
2022-08-11T05:18:56.301Z,66.36
2022-08-11T05:19:56.274Z,66.56
2022-08-11T05:20:57.499Z,66.46
2022-08-11T05:21:57.360Z,65.95
2022-08-11T05:22:57.181Z,65.55
2022-08-11T05:23:56.241Z,65.35
2022-08-11T05:24:56.222Z,65.01
2022-08-11T05:26:44.641Z,64.41
2022-08-11T05:26:57.294Z,64.72
2022-08-11T05:27:56.245Z,64.78
2022-08-11T05:28:56.172Z,64.51
2022-08-11T05:29:56.205Z,64.11
2022-08-11T05:30:56.153Z,65.12
2022-08-11T05:31:56.191Z,65.32
2022-08-11T05:33:01.437Z,64.81
2022-08-11T05:33:58.149Z,65.19
2022-08-11T05:34:56.104Z,65.29
2022-08-11T05:36:00.131Z,64.18
2022-08-11T05:37:17.291Z,65.22
2022-08-11T05:37:58.094Z,65.19
2022-08-11T05:38:56.046Z,65.19
2022-08-11T05:39:56.060Z,65.62
2022-08-11T05:41:00.173Z,66.42
2022-08-11T05:41:56.033Z,66.22
2022-08-11T05:42:56.026Z,66.22
2022-08-11T05:44:20.749Z,66.19
2022-08-11T05:44:57.027Z,66.13
2022-08-11T05:46:03.809Z,66.33
2022-08-11T05:46:57.024Z,66.42
2022-08-11T05:47:55.959Z,66.93
2022-08-11T05:48:55.951Z,66.19
2022-08-11T05:49:57.893Z,65.66
2022-08-11T05:50:55.959Z,65.36
2022-08-11T05:51:57.197Z,65.16
2022-08-11T05:52:57.404Z,63.95
2022-08-11T05:53:55.890Z,64.32
2022-08-11T05:54:55.855Z,64.72
2022-08-11T05:56:02.629Z,65.33
2022-08-11T05:56:56.885Z,63.42
2022-08-11T05:57:55.846Z,64.12
2022-08-11T05:58:55.854Z,64.92
2022-08-11T05:59:56.559Z,64.92
2022-08-11T06:00:55.878Z,64.32
2022-08-11T06:01:55.907Z,64.82
2022-08-11T06:02:55.858Z,63.92
2022-08-11T06:03:58.013Z,64.52
2022-08-11T06:04:55.805Z,63.89
2022-08-11T06:05:55.739Z,63.45
2022-08-11T06:07:30.561Z,62.95
2022-08-11T06:07:57.370Z,62.92
2022-08-11T06:08:55.718Z,61.88
2022-08-11T06:09:55.682Z,61.88
2022-08-11T06:10:55.654Z,61.46
2022-08-11T06:11:56.065Z,61.38
2022-08-11T06:12:55.620Z,60.85
2022-08-11T06:13:55.663Z,59.95
2022-08-11T06:14:55.696Z,60.02
2022-08-11T06:15:55.680Z,59.82
2022-08-11T06:16:55.613Z,59.89
2022-08-11T06:17:55.598Z,60.10
2022-08-11T06:18:55.562Z,59.89
2022-08-11T06:19:55.635Z,59.06
2022-08-11T06:20:56.586Z,58.86
2022-08-11T06:21:55.567Z,60.19
2022-08-11T06:22:55.576Z,60.29
2022-08-11T06:23:55.532Z,60.19
2022-08-11T06:24:55.559Z,59.96
2022-08-11T06:25:56.369Z,59.26
2022-08-11T06:27:11.684Z,60.16
2022-08-11T06:27:57.480Z,59.74
2022-08-11T06:28:55.480Z,60.03
2022-08-11T06:29:55.835Z,57.73
2022-08-11T06:30:56.420Z,57.40
2022-08-11T06:31:55.483Z,56.80
2022-08-11T06:32:55.451Z,58.40
2022-08-11T06:33:55.505Z,57.90
2022-08-11T06:34:55.464Z,56.48
2022-08-11T06:35:55.764Z,57.37
2022-08-11T06:36:55.392Z,56.35
2022-08-11T06:37:58.849Z,55.55
2022-08-11T06:38:55.420Z,54.64
2022-08-11T06:39:55.419Z,54.85
2022-08-11T06:40:55.376Z,55.05
2022-08-11T06:41:55.384Z,55.44
2022-08-11T06:42:55.297Z,55.22
2022-08-11T06:43:56.417Z,54.82
2022-08-11T06:44:55.369Z,55.62
2022-08-11T06:45:55.393Z,56.72
2022-08-11T06:46:55.264Z,56.02
2022-08-11T06:47:55.301Z,56.42
2022-08-11T06:48:55.252Z,55.59
2022-08-11T06:49:55.243Z,55.40
2022-08-11T06:50:55.372Z,54.39
2022-08-11T06:51:55.293Z,54.49
2022-08-11T06:52:56.309Z,54.60
2022-08-11T06:54:03.625Z,54.27
2022-08-11T06:54:56.208Z,54.27
2022-08-11T06:55:58.791Z,54.06
2022-08-11T06:57:26.361Z,53.67
2022-08-11T06:57:57.221Z,54.06
2022-08-11T06:58:55.174Z,53.77
2022-08-11T06:59:55.210Z,53.97
2022-08-11T07:00:55.144Z,53.67
2022-08-11T07:01:55.183Z,53.87
2022-08-11T07:02:55.143Z,52.97
2022-08-11T07:03:55.230Z,53.07
2022-08-11T07:04:55.062Z,52.07
2022-08-11T07:05:55.132Z,53.17
2022-08-11T07:06:55.154Z,53.17
2022-08-11T07:07:55.073Z,54.04
2022-08-11T07:08:55.094Z,52.25
2022-08-11T07:09:55.070Z,51.94
2022-08-11T07:10:55.736Z,52.04
2022-08-11T07:11:54.977Z,51.82
2022-08-11T07:12:55.002Z,51.82
2022-08-11T07:13:55.117Z,51.89
2022-08-11T07:15:00.497Z,51.50
2022-08-11T07:16:13.166Z,49.80
2022-08-11T07:16:55.954Z,52.09
2022-08-11T07:17:54.970Z,51.77
2022-08-11T07:18:55.578Z,49.68
2022-08-11T07:19:56.917Z,49.85
2022-08-11T07:20:57.415Z,49.85
2022-08-11T07:22:02.900Z,50.25
2022-08-11T07:22:55.914Z,48.93
2022-08-11T07:23:54.946Z,50.02
2022-08-11T07:25:01.439Z,48.53
2022-08-11T07:25:55.986Z,49.43
2022-08-11T07:26:54.931Z,49.93
2022-08-11T07:27:54.809Z,50.60
2022-08-11T07:28:54.814Z,49.60
2022-08-11T07:29:54.843Z,49.51
2022-08-11T07:30:54.876Z,50.38
2022-08-11T07:31:54.843Z,48.98
2022-08-11T07:32:54.815Z,49.46
2022-08-11T07:34:05.693Z,50.55
2022-08-11T07:34:55.746Z,49.43
2022-08-11T07:35:54.795Z,49.04
2022-08-11T07:36:55.633Z,49.01
2022-08-11T07:38:01.449Z,47.40
2022-08-11T07:38:55.718Z,46.28
2022-08-11T07:39:54.790Z,45.17
2022-08-11T07:40:54.731Z,45.42
2022-08-11T07:41:54.806Z,44.68
2022-08-11T07:42:54.779Z,43.13
2022-08-11T07:43:54.760Z,41.91
2022-08-11T07:44:54.748Z,40.58
2022-08-11T07:45:54.602Z,39.26
2022-08-11T07:46:54.973Z,39.65
2022-08-11T07:47:54.689Z,38.56
2022-08-11T07:48:54.560Z,38.56
2022-08-11T07:49:54.874Z,37.53
2022-08-11T07:50:56.232Z,37.20
2022-08-11T07:51:54.743Z,36.82
2022-08-11T07:52:54.764Z,36.41
2022-08-11T07:53:58.647Z,36.22
2022-08-11T07:54:55.653Z,36.32
2022-08-11T07:55:54.496Z,36.61
2022-08-11T07:57:09.403Z,38.04
2022-08-11T07:58:16.813Z,37.88
2022-08-11T07:58:59.209Z,39.18
2022-08-11T08:00:00.191Z,39.40
2022-08-11T08:00:55.681Z,40.09
2022-08-11T08:01:54.543Z,40.19
2022-08-11T08:02:54.482Z,40.19
2022-08-11T08:03:55.560Z,40.01
2022-08-11T08:04:54.425Z,39.62
2022-08-11T08:05:54.473Z,39.73
2022-08-11T08:06:54.373Z,39.85
2022-08-11T08:07:54.996Z,40.88
2022-08-11T08:08:55.494Z,42.29
2022-08-11T08:09:54.381Z,41.99
2022-08-11T08:10:54.422Z,42.29
2022-08-11T08:11:54.358Z,43.26
2022-08-11T08:12:54.345Z,43.18
2022-08-11T08:13:55.400Z,42.78
2022-08-11T08:14:54.302Z,42.09
2022-08-11T08:15:54.326Z,42.58
2022-08-11T08:16:54.342Z,40.92
2022-08-11T08:18:09.248Z,40.90
2022-08-11T08:18:55.291Z,41.10
2022-08-11T08:19:55.122Z,41.10
2022-08-11T08:20:54.260Z,40.90
2022-08-11T08:21:54.259Z,40.03
2022-08-11T08:22:55.590Z,40.62
2022-08-11T08:23:56.450Z,40.64
2022-08-11T08:24:54.399Z,41.75
2022-08-11T08:25:54.358Z,43.14
2022-08-11T08:26:54.222Z,43.93
2022-08-11T08:27:54.343Z,44.01
2022-08-11T08:28:54.271Z,43.22
2022-08-11T08:29:54.214Z,43.12
2022-08-11T08:30:54.266Z,43.22
2022-08-11T08:31:54.125Z,43.22
2022-08-11T08:32:54.179Z,42.80
2022-08-11T08:33:54.203Z,43.49
2022-08-11T08:34:54.123Z,43.60
2022-08-11T08:35:55.994Z,43.20
2022-08-11T08:36:54.111Z,43.00
2022-08-11T08:37:54.406Z,42.78
2022-08-11T08:38:54.095Z,42.41
2022-08-11T08:39:55.617Z,42.60
2022-08-11T08:40:55.897Z,42.31
2022-08-11T08:41:55.002Z,42.50
2022-08-11T08:42:53.990Z,41.71
2022-08-11T08:43:54.007Z,42.11
2022-08-11T08:44:53.959Z,41.91
2022-08-11T08:45:53.951Z,42.78
2022-08-11T08:46:53.943Z,41.39
2022-08-11T08:47:53.926Z,40.48
2022-08-11T08:48:53.934Z,41.38
2022-08-11T08:49:53.894Z,41.28
2022-08-11T08:50:53.892Z,40.68
2022-08-11T08:51:58.729Z,40.86
2022-08-11T08:52:54.985Z,39.50
2022-08-11T08:53:56.117Z,40.09
2022-08-11T08:54:53.837Z,41.10
2022-08-11T08:55:53.828Z,42.19
2022-08-11T08:56:53.849Z,41.79
2022-08-11T08:57:53.824Z,40.98
2022-08-11T08:58:53.776Z,40.78
2022-08-11T08:59:53.784Z,41.25
2022-08-11T09:00:53.854Z,41.04
2022-08-11T09:01:53.810Z,39.46
2022-08-11T09:02:55.297Z,38.96
2022-08-11T09:04:07.297Z,39.04
2022-08-11T09:04:55.787Z,39.43
2022-08-11T09:05:54.672Z,39.64
2022-08-11T09:06:53.730Z,39.93
2022-08-11T09:07:53.765Z,39.34
2022-08-11T09:08:53.705Z,40.50
2022-08-11T09:09:53.753Z,39.52
2022-08-11T09:10:53.718Z,37.94
2022-08-11T09:11:53.696Z,37.13
2022-08-11T09:12:53.755Z,37.72
2022-08-11T09:14:05.655Z,36.83
2022-08-11T09:14:54.665Z,37.21
2022-08-11T09:15:56.414Z,38.39
2022-08-11T09:16:54.645Z,37.70
2022-08-11T09:17:53.652Z,37.11
2022-08-11T09:18:53.593Z,35.53
2022-08-11T09:19:56.778Z,37.70
2022-08-11T09:20:53.570Z,36.80
2022-08-11T09:21:53.609Z,38.08
2022-08-11T09:23:29.552Z,37.98
2022-08-11T09:24:07.289Z,37.49
2022-08-11T09:24:55.525Z,36.58
2022-08-11T09:25:53.570Z,36.98
2022-08-11T09:26:53.514Z,36.98
2022-08-11T09:27:53.530Z,36.46
2022-08-11T09:28:53.481Z,36.96
2022-08-11T09:29:53.501Z,36.76
2022-08-11T09:30:53.539Z,36.38
2022-08-11T09:31:53.466Z,36.86
2022-08-11T09:32:53.477Z,36.96
2022-08-11T09:33:53.450Z,35.96
2022-08-11T09:34:54.203Z,34.95
2022-08-11T09:35:53.433Z,33.97
2022-08-11T09:36:53.399Z,34.17
2022-08-11T09:37:54.186Z,34.03
2022-08-11T09:38:54.159Z,35.02
2022-08-11T09:39:54.402Z,33.62
2022-08-11T09:40:56.339Z,32.34
2022-08-11T09:42:01.785Z,31.66
2022-08-11T09:42:54.410Z,31.48
2022-08-11T09:43:53.353Z,31.87
2022-08-11T09:44:54.054Z,33.23
2022-08-11T09:45:53.310Z,32.34
2022-08-11T09:46:53.328Z,32.72
2022-08-11T09:47:53.302Z,32.04
2022-08-11T09:48:53.276Z,31.26
2022-08-11T09:49:53.261Z,32.43
2022-08-11T09:50:53.279Z,31.94
2022-08-11T09:51:59.739Z,32.04
2022-08-11T09:53:35.123Z,31.94
2022-08-11T09:54:02.929Z,31.95
2022-08-11T09:54:53.327Z,30.85
2022-08-11T09:55:53.932Z,31.25
2022-08-11T09:56:53.311Z,31.95
2022-08-11T09:57:55.136Z,32.05
2022-08-11T09:58:54.130Z,31.46
2022-08-11T09:59:53.202Z,32.62
2022-08-11T10:00:55.477Z,31.36
2022-08-11T10:01:53.614Z,31.94
2022-08-11T10:02:53.353Z,32.74
2022-08-11T10:03:55.078Z,31.16
2022-08-11T10:04:53.173Z,32.24
2022-08-11T10:05:53.118Z,31.18
2022-08-11T10:06:54.080Z,31.20
2022-08-11T10:07:53.067Z,32.39
2022-08-11T10:08:54.075Z,33.48
2022-08-11T10:09:53.014Z,33.77
2022-08-11T10:10:53.129Z,33.39
2022-08-11T10:11:55.472Z,32.41
2022-08-11T10:12:54.243Z,33.79
2022-08-11T10:14:32.935Z,32.59
2022-08-11T10:14:55.545Z,31.90
2022-08-11T10:16:03.592Z,32.89
2022-08-11T10:16:53.951Z,32.39
2022-08-11T10:17:53.012Z,31.90
2022-08-11T10:18:53.712Z,31.80
2022-08-11T10:20:05.262Z,31.52
2022-08-11T10:20:54.181Z,32.31
2022-08-11T10:21:52.999Z,33.69
2022-08-11T10:22:52.927Z,33.87
2022-08-11T10:24:00.271Z,32.28
2022-08-11T10:24:53.878Z,33.54
2022-08-11T10:25:54.752Z,31.28
2022-08-11T10:26:54.454Z,31.57
2022-08-11T10:28:30.558Z,31.76
2022-08-11T10:29:12.126Z,30.68
2022-08-11T10:29:54.851Z,31.26
2022-08-11T10:30:53.715Z,32.17
2022-08-11T10:31:56.977Z,30.97
2022-08-11T10:32:59.488Z,29.90
2022-08-11T10:33:59.558Z,31.56
2022-08-11T10:34:56.345Z,31.16
2022-08-11T10:35:53.925Z,30.68
2022-08-11T10:36:53.051Z,29.02
2022-08-11T10:38:07.729Z,29.90
2022-08-11T10:38:54.163Z,30.71
2022-08-11T10:39:53.217Z,31.48
2022-08-11T10:40:53.057Z,31.18
2022-08-11T10:42:02.875Z,31.57
2022-08-11T10:42:57.811Z,29.69
2022-08-11T10:44:02.863Z,30.28
2022-08-11T10:44:53.679Z,30.28
2022-08-11T10:45:52.626Z,30.77
2022-08-11T10:46:53.643Z,29.79
2022-08-11T10:47:52.733Z,29.30
2022-08-11T10:48:53.784Z,29.90
2022-08-11T10:49:52.756Z,29.71
2022-08-11T10:50:52.687Z,29.72
2022-08-11T10:51:53.916Z,30.31
2022-08-11T10:52:52.747Z,30.72
2022-08-11T10:53:52.820Z,31.70
2022-08-11T10:54:52.776Z,30.32
2022-08-11T10:55:52.885Z,31.01
2022-08-11T10:56:52.564Z,31.80
2022-08-11T10:58:04.555Z,30.90
2022-08-11T10:58:53.832Z,30.41
2022-08-11T10:59:52.698Z,30.40
2022-08-11T11:00:52.733Z,30.79
2022-08-11T11:01:52.726Z,31.26
2022-08-11T11:03:07.190Z,30.28
2022-08-11T11:03:53.502Z,31.26
2022-08-11T11:04:52.759Z,31.07
2022-08-11T11:06:28.836Z,29.69
2022-08-11T11:06:53.413Z,29.92
2022-08-11T11:07:52.722Z,29.90
2022-08-11T11:08:53.093Z,29.02
2022-08-11T11:09:52.688Z,29.41
2022-08-11T11:10:52.437Z,29.59
2022-08-11T11:11:52.563Z,29.99
2022-08-11T11:12:52.460Z,29.28
2022-08-11T11:13:53.322Z,29.59
2022-08-11T11:14:58.213Z,29.59
2022-08-11T11:15:53.642Z,29.20
2022-08-11T11:16:52.530Z,29.20
2022-08-11T11:17:52.416Z,29.19
2022-08-11T11:19:01.200Z,27.92
2022-08-11T11:19:52.438Z,28.14
2022-08-11T11:20:52.921Z,28.93
2022-08-11T11:21:52.285Z,28.93
2022-08-11T11:22:52.249Z,29.62
2022-08-11T11:23:52.265Z,29.90
2022-08-11T11:24:52.499Z,29.49
2022-08-11T11:25:56.746Z,29.59
2022-08-11T11:26:53.242Z,29.39
2022-08-11T11:27:52.330Z,29.51
2022-08-11T11:28:52.409Z,29.71
2022-08-11T11:29:52.255Z,30.08
2022-08-11T11:30:52.186Z,29.68
2022-08-11T11:31:52.146Z,30.55
2022-08-11T11:32:52.276Z,31.51
2022-08-11T11:34:06.195Z,30.81
2022-08-11T11:34:54.083Z,28.06
2022-08-11T11:35:52.177Z,28.95
2022-08-11T11:36:52.090Z,28.86
2022-08-11T11:38:03.793Z,29.55
2022-08-11T11:38:53.119Z,29.47
2022-08-11T11:39:52.225Z,29.16
2022-08-11T11:40:52.282Z,29.66
2022-08-11T11:41:52.141Z,29.17
2022-08-11T11:42:52.191Z,29.07
2022-08-11T11:43:52.043Z,29.64
2022-08-11T11:44:55.554Z,29.68
2022-08-11T11:45:53.075Z,30.68
2022-08-11T11:46:52.049Z,30.87
2022-08-11T11:47:53.836Z,31.28
2022-08-11T11:48:52.043Z,31.18
2022-08-11T11:49:52.000Z,31.95
2022-08-11T11:50:53.717Z,31.07
2022-08-11T11:51:52.046Z,30.76
2022-08-11T11:52:51.926Z,30.66
2022-08-11T11:53:52.171Z,30.76
2022-08-11T11:54:51.927Z,30.58
2022-08-11T11:55:52.011Z,31.74
2022-08-11T11:56:52.096Z,30.74
2022-08-11T11:57:58.664Z,30.32
2022-08-11T11:58:52.910Z,29.83
2022-08-11T11:59:51.886Z,29.82
2022-08-11T12:00:51.925Z,29.70
2022-08-11T12:01:51.911Z,29.02
2022-08-11T12:02:51.936Z,29.50
2022-08-11T12:03:52.247Z,29.02
2022-08-11T12:04:51.859Z,29.00
2022-08-11T12:05:51.890Z,29.20
2022-08-11T12:06:52.033Z,29.30
2022-08-11T12:08:05.138Z,29.21
2022-08-11T12:08:53.742Z,29.02
2022-08-11T12:09:53.109Z,30.98
2022-08-11T12:10:52.742Z,29.11
2022-08-11T12:11:52.185Z,30.29
2022-08-11T12:12:52.747Z,28.83
2022-08-11T12:13:51.744Z,29.82
2022-08-11T12:14:52.683Z,31.58
2022-08-11T12:16:31.199Z,31.76
2022-08-11T12:16:52.827Z,30.19
2022-08-11T12:17:52.908Z,29.69
2022-08-11T12:18:51.919Z,30.77
2022-08-11T12:19:51.757Z,28.99
2022-08-11T12:20:51.834Z,29.48
2022-08-11T12:21:51.638Z,29.48
2022-08-11T12:22:52.238Z,29.02
2022-08-11T12:23:51.679Z,29.62
2022-08-11T12:24:51.657Z,29.22
2022-08-11T12:26:10.095Z,30.01
2022-08-11T12:27:02.745Z,31.47
2022-08-11T12:27:52.607Z,30.58
2022-08-11T12:28:51.634Z,30.47
2022-08-11T12:29:55.310Z,30.65
2022-08-11T12:30:54.129Z,29.08
2022-08-11T12:31:51.599Z,29.28
2022-08-11T12:32:51.745Z,28.63
2022-08-11T12:33:51.517Z,29.59
2022-08-11T12:34:52.560Z,27.33
2022-08-11T12:36:00.655Z,27.53
2022-08-11T12:36:52.647Z,28.01
2022-08-11T12:37:53.555Z,28.97
2022-08-11T12:38:51.788Z,26.92
2022-08-11T12:40:15.767Z,25.74
2022-08-11T12:41:15.086Z,27.33
2022-08-11T12:41:53.614Z,26.33
2022-08-11T12:42:55.519Z,26.83
2022-08-11T12:43:56.444Z,26.64
2022-08-11T12:44:52.491Z,27.52
2022-08-11T12:45:51.473Z,27.42
2022-08-11T12:46:51.396Z,27.52
2022-08-11T12:48:40.234Z,28.30
2022-08-11T12:48:58.559Z,26.92
2022-08-11T12:49:52.394Z,26.83
2022-08-11T12:50:51.360Z,28.39
2022-08-11T12:52:11.847Z,26.34
2022-08-11T12:52:52.320Z,27.34